createdAt,value
2022-09-14T00:00:19.925Z,21.24
2022-09-14T00:03:25.745Z,21.57
2022-09-14T00:06:32.126Z,21.54
2022-09-14T00:09:37.577Z,21.47
2022-09-14T00:12:42.817Z,21.56
2022-09-14T00:15:49.002Z,21.57
2022-09-14T00:19:06.606Z,21.54
2022-09-14T00:22:12.373Z,21.54
2022-09-14T00:25:18.765Z,21.47
2022-09-14T00:28:24.480Z,21.47
2022-09-14T00:31:30.162Z,21.47
2022-09-14T00:34:35.974Z,21.48
2022-09-14T00:37:41.453Z,21.30
2022-09-14T00:40:58.085Z,21.25
2022-09-14T00:44:07.220Z,21.31
2022-09-14T00:47:13.891Z,21.29
2022-09-14T00:50:21.344Z,21.30
2022-09-14T00:53:26.808Z,21.14
2022-09-14T00:56:33.104Z,21.29
2022-09-14T00:59:41.996Z,21.27
2022-09-14T01:02:47.839Z,21.34
2022-09-14T01:06:19.344Z,21.30
2022-09-14T01:09:33.873Z,21.10
2022-09-14T01:12:54.697Z,21.25
2022-09-14T01:16:17.735Z,21.18
2022-09-14T01:19:34.703Z,21.18
2022-09-14T01:22:50.795Z,21.17
2022-09-14T01:26:23.794Z,21.07
2022-09-14T01:29:32.147Z,21.05
2022-09-14T01:32:49.750Z,20.98
2022-09-14T01:35:59.014Z,20.94
2022-09-14T01:39:05.835Z,20.91
2022-09-14T01:42:14.196Z,20.98
2022-09-14T01:45:23.051Z,20.91
2022-09-14T01:48:44.646Z,20.79
2022-09-14T01:51:56.662Z,20.70
2022-09-14T01:55:10.473Z,20.70
2022-09-14T01:58:24.448Z,20.85
2022-09-14T02:01:40.361Z,20.71
2022-09-14T02:04:58.441Z,20.76
2022-09-14T02:08:04.010Z,20.70
2022-09-14T02:11:09.497Z,20.63
2022-09-14T02:14:15.470Z,20.56
2022-09-14T02:17:22.207Z,20.63
2022-09-14T02:20:49.201Z,20.56
2022-09-14T02:23:54.905Z,20.64
2022-09-14T02:27:02.414Z,20.81
2022-09-14T02:30:08.854Z,20.74
2022-09-14T02:33:27.585Z,20.72
2022-09-14T02:36:51.084Z,20.62
2022-09-14T02:40:10.977Z,20.76
2022-09-14T02:43:19.083Z,20.73
2022-09-14T02:46:53.441Z,20.73
2022-09-14T02:50:24.499Z,20.70
2022-09-14T02:53:47.947Z,20.61
2022-09-14T02:56:54.385Z,20.66
2022-09-14T03:00:00.028Z,20.66
2022-09-14T03:03:07.039Z,20.69
2022-09-14T03:06:12.355Z,20.65
2022-09-14T03:09:18.456Z,20.57
2022-09-14T03:12:23.870Z,20.54
2022-09-14T03:15:30.442Z,20.54
2022-09-14T03:18:37.369Z,20.53
2022-09-14T03:21:42.858Z,20.58
2022-09-14T03:24:48.742Z,20.62
2022-09-14T03:27:58.374Z,20.60
2022-09-14T03:31:06.780Z,20.55
2022-09-14T03:34:12.707Z,20.47
2022-09-14T03:37:18.566Z,20.25
2022-09-14T03:40:24.414Z,20.43
2022-09-14T03:43:30.121Z,20.52
2022-09-14T03:46:35.939Z,20.61
2022-09-14T03:49:40.892Z,20.63
2022-09-14T03:52:46.580Z,20.56
2022-09-14T03:55:52.117Z,20.48
2022-09-14T03:58:58.157Z,20.47
2022-09-14T04:02:04.637Z,20.42
2022-09-14T04:05:10.736Z,20.41
2022-09-14T04:08:16.159Z,20.34
2022-09-14T04:11:25.056Z,20.30
2022-09-14T04:14:30.595Z,20.21
2022-09-14T04:17:36.605Z,20.22
2022-09-14T04:20:42.631Z,20.24
2022-09-14T04:24:13.232Z,20.17
2022-09-14T04:27:14.800Z,20.08
2022-09-14T04:30:22.258Z,19.99
2022-09-14T04:33:34.363Z,19.72
2022-09-14T04:36:40.803Z,19.78
2022-09-14T04:39:47.279Z,19.74
2022-09-14T04:42:53.071Z,19.85
2022-09-14T04:46:04.083Z,19.40
2022-09-14T04:49:10.219Z,19.67
2022-09-14T04:52:16.426Z,19.76
2022-09-14T04:55:22.189Z,19.78
2022-09-14T04:58:29.130Z,19.23
2022-09-14T05:01:38.364Z,19.04
2022-09-14T05:04:44.936Z,19.38
2022-09-14T05:07:50.525Z,19.59
2022-09-14T05:10:57.693Z,19.60
2022-09-14T05:14:03.597Z,19.68
2022-09-14T05:17:09.398Z,19.38
2022-09-14T05:20:14.869Z,19.48
2022-09-14T05:23:20.745Z,19.44
2022-09-14T05:26:28.591Z,19.51
2022-09-14T05:29:34.066Z,19.61
2022-09-14T05:32:40.077Z,19.44
2022-09-14T05:35:47.104Z,19.46
2022-09-14T05:38:52.980Z,19.52
2022-09-14T05:41:58.444Z,19.54
2022-09-14T05:45:04.923Z,19.66
2022-09-14T05:48:10.712Z,19.90
2022-09-14T05:51:20.156Z,19.86
2022-09-14T05:54:25.529Z,19.99
2022-09-14T05:57:31.133Z,20.07
2022-09-14T06:00:36.803Z,20.13
2022-09-14T06:03:43.396Z,20.18
2022-09-14T06:07:01.657Z,20.26
2022-09-14T06:10:14.442Z,20.38
2022-09-14T06:13:20.201Z,20.26
2022-09-14T06:16:28.294Z,20.42
2022-09-14T06:19:34.153Z,20.49
2022-09-14T06:22:39.837Z,20.77
2022-09-14T06:25:45.644Z,20.36
2022-09-14T06:28:52.030Z,20.59
2022-09-14T06:31:57.899Z,20.43
2022-09-14T06:35:03.904Z,20.58
2022-09-14T06:38:09.875Z,20.95
2022-09-14T06:41:21.023Z,20.99
2022-09-14T06:44:26.718Z,21.07
2022-09-14T06:47:33.096Z,21.28
2022-09-14T06:50:38.575Z,21.39
2022-09-14T06:53:45.319Z,21.18
2022-09-14T06:56:51.043Z,21.34
2022-09-14T06:59:56.892Z,21.56
2022-09-14T07:03:02.724Z,21.71
2022-09-14T07:06:11.997Z,21.83
2022-09-14T07:09:19.683Z,22.01
2022-09-14T07:12:25.444Z,22.22
2022-09-14T07:15:30.973Z,22.17
2022-09-14T07:18:36.858Z,22.30
2022-09-14T07:21:43.243Z,22.51
2022-09-14T07:24:48.616Z,22.56
2022-09-14T07:27:54.087Z,22.49
2022-09-14T07:31:00.645Z,22.51
2022-09-14T07:34:06.600Z,22.61
2022-09-14T07:37:12.216Z,22.55
2022-09-14T07:40:18.124Z,22.71
2022-09-14T07:43:23.584Z,22.61
2022-09-14T07:46:33.462Z,22.76
2022-09-14T07:49:39.219Z,22.91
2022-09-14T07:52:45.404Z,22.95
2022-09-14T07:55:50.776Z,22.96
2022-09-14T07:59:11.934Z,22.86
2022-09-14T08:02:25.423Z,23.00
2022-09-14T08:05:30.924Z,23.10
2022-09-14T08:08:40.033Z,23.39
2022-09-14T08:11:45.593Z,23.44
2022-09-14T08:14:52.592Z,23.71
2022-09-14T08:17:58.478Z,23.75
2022-09-14T08:21:09.481Z,23.80
2022-09-14T08:24:18.448Z,23.82
2022-09-14T08:27:23.948Z,23.64
2022-09-14T08:30:29.324Z,23.77
2022-09-14T08:33:38.048Z,23.79
2022-09-14T08:36:45.121Z,23.88
2022-09-14T08:39:51.919Z,23.79
2022-09-14T08:42:59.606Z,23.89
2022-09-14T08:46:10.939Z,24.06
2022-09-14T08:49:23.577Z,24.05
2022-09-14T08:52:49.044Z,24.09
2022-09-14T08:55:58.472Z,24.09
2022-09-14T08:59:35.294Z,24.08
2022-09-14T09:02:47.053Z,24.23
2022-09-14T09:06:02.771Z,24.20
2022-09-14T09:09:35.823Z,24.23
2022-09-14T09:12:51.717Z,24.24
2022-09-14T09:16:06.848Z,24.25
2022-09-14T09:19:20.857Z,24.15
2022-09-14T09:22:30.518Z,24.12
2022-09-14T09:26:00.830Z,24.19
2022-09-14T09:29:10.408Z,24.06
2022-09-14T09:32:37.037Z,24.11
2022-09-14T09:36:03.518Z,24.09
2022-09-14T09:39:10.071Z,24.17
2022-09-14T09:42:20.906Z,24.39
2022-09-14T09:45:34.702Z,24.73
2022-09-14T09:48:46.074Z,24.79
2022-09-14T09:51:53.762Z,24.96
2022-09-14T09:55:00.755Z,25.14
2022-09-14T09:58:28.969Z,25.27
2022-09-14T10:01:36.412Z,25.20
2022-09-14T10:05:09.476Z,25.47
2022-09-14T10:08:16.334Z,25.49
2022-09-14T10:11:32.783Z,25.54
2022-09-14T10:14:40.631Z,25.61
2022-09-14T10:18:11.774Z,25.58
2022-09-14T10:21:23.176Z,25.67
2022-09-14T10:24:29.050Z,25.80
2022-09-14T10:27:56.476Z,25.81
2022-09-14T10:31:18.600Z,25.86
2022-09-14T10:34:24.299Z,25.94
2022-09-14T10:37:38.327Z,25.93
2022-09-14T10:40:48.393Z,26.08
2022-09-14T10:44:05.818Z,26.24
2022-09-14T10:47:48.408Z,26.33
2022-09-14T10:51:06.932Z,26.25
2022-09-14T10:54:30.379Z,26.34
2022-09-14T10:58:07.700Z,26.41
2022-09-14T11:01:52.938Z,26.25
2022-09-14T11:05:14.742Z,26.27
2022-09-14T11:08:45.817Z,26.32
2022-09-14T11:12:16.109Z,26.38
2022-09-14T11:15:21.481Z,26.47
2022-09-14T11:19:05.265Z,26.51
2022-09-14T11:22:32.441Z,26.41
2022-09-14T11:25:47.347Z,26.36
2022-09-14T11:28:58.854Z,26.30
2022-09-14T11:32:23.383Z,26.50
2022-09-14T11:35:48.699Z,26.68
2022-09-14T11:39:04.708Z,26.72
2022-09-14T11:42:25.464Z,26.71
2022-09-14T11:45:48.528Z,26.76
2022-09-14T11:49:20.076Z,26.62
2022-09-14T11:52:29.164Z,26.47
2022-09-14T11:55:35.122Z,26.51
2022-09-14T11:58:40.632Z,26.61
2022-09-14T12:01:46.158Z,26.68
2022-09-14T12:05:18.086Z,26.85
2022-09-14T12:08:30.953Z,26.91
2022-09-14T12:11:37.344Z,26.90
2022-09-14T12:14:44.988Z,27.18
2022-09-14T12:18:06.861Z,27.21
2022-09-14T12:21:27.826Z,27.55
2022-09-14T12:24:40.342Z,27.29
2022-09-14T12:27:49.292Z,27.04
2022-09-14T12:30:54.685Z,26.94
2022-09-14T12:34:16.499Z,27.11
2022-09-14T12:37:31.652Z,27.08
2022-09-14T12:40:38.107Z,26.94
2022-09-14T12:43:47.009Z,26.83
2022-09-14T12:46:52.322Z,26.86
2022-09-14T12:50:06.363Z,27.13
2022-09-14T12:53:30.116Z,27.16
2022-09-14T12:56:51.462Z,27.61
2022-09-14T13:00:13.124Z,27.71
2022-09-14T13:03:46.668Z,27.81
2022-09-14T13:06:54.234Z,27.47
2022-09-14T13:10:02.003Z,27.18
2022-09-14T13:13:27.335Z,27.12
2022-09-14T13:17:00.370Z,27.04
2022-09-14T13:20:18.988Z,27.08
2022-09-14T13:23:37.411Z,26.97
2022-09-14T13:26:44.396Z,27.17
2022-09-14T13:30:16.046Z,27.31
2022-09-14T13:33:22.215Z,27.28
2022-09-14T13:36:31.242Z,27.64
2022-09-14T13:39:41.536Z,27.73
2022-09-14T13:42:47.523Z,27.52
2022-09-14T13:45:53.378Z,27.67
2022-09-14T13:48:59.576Z,27.79
2022-09-14T13:52:25.881Z,27.64
2022-09-14T13:55:39.622Z,27.41
2022-09-14T13:58:46.139Z,27.31
2022-09-14T14:01:59.089Z,27.56
2022-09-14T14:05:06.685Z,27.27
2022-09-14T14:08:39.029Z,27.52
2022-09-14T14:11:55.453Z,27.45
2022-09-14T14:15:04.321Z,27.31
2022-09-14T14:18:37.370Z,27.13
2022-09-14T14:21:43.506Z,27.16
2022-09-14T14:25:12.216Z,27.23
2022-09-14T14:28:23.452Z,27.27
2022-09-14T14:31:29.109Z,27.21
2022-09-14T14:34:34.744Z,27.32
2022-09-14T14:37:41.332Z,27.39
2022-09-14T14:40:47.348Z,27.39
2022-09-14T14:43:53.085Z,27.19
2022-09-14T14:46:58.442Z,27.08
2022-09-14T14:50:04.641Z,27.03
2022-09-14T14:53:10.528Z,26.91
2022-09-14T14:56:15.622Z,26.94
2022-09-14T14:59:21.226Z,26.91
2022-09-14T15:02:26.379Z,26.81
2022-09-14T15:05:32.668Z,26.96
2022-09-14T15:08:38.300Z,26.97
2022-09-14T15:11:43.781Z,26.95
2022-09-14T15:14:48.782Z,26.89
2022-09-14T15:17:54.306Z,26.96
2022-09-14T15:20:59.787Z,26.88
2022-09-14T15:24:05.589Z,26.75
2022-09-14T15:27:11.329Z,26.75
2022-09-14T15:30:17.160Z,26.67
2022-09-14T15:33:22.618Z,26.66
2022-09-14T15:36:52.677Z,26.62
2022-09-14T15:39:58.341Z,26.55
2022-09-14T15:43:04.487Z,26.43
2022-09-14T15:46:10.133Z,26.43
2022-09-14T15:49:22.236Z,26.36
2022-09-14T15:52:27.910Z,26.22
2022-09-14T15:55:33.544Z,26.19
2022-09-14T15:58:40.703Z,26.09
2022-09-14T16:01:49.192Z,25.96
2022-09-14T16:04:54.890Z,25.81
2022-09-14T16:08:00.322Z,25.54
2022-09-14T16:11:07.676Z,25.41
2022-09-14T16:14:13.491Z,25.30
2022-09-14T16:17:18.828Z,25.31
2022-09-14T16:20:24.212Z,25.18
2022-09-14T16:23:29.410Z,25.11
2022-09-14T16:26:37.112Z,25.07
2022-09-14T16:29:42.739Z,25.00
2022-09-14T16:32:48.388Z,24.97
2022-09-14T16:36:03.129Z,25.04
2022-09-14T16:39:12.175Z,25.01
2022-09-14T16:42:17.912Z,24.92
2022-09-14T16:45:23.630Z,24.87
2022-09-14T16:48:30.077Z,24.90
2022-09-14T16:51:36.028Z,24.84
2022-09-14T16:54:42.092Z,24.76
2022-09-14T16:57:47.994Z,24.77
2022-09-14T17:00:53.774Z,24.74
2022-09-14T17:04:08.919Z,24.57
2022-09-14T17:07:14.668Z,24.48
2022-09-14T17:10:20.066Z,24.40
2022-09-14T17:13:27.519Z,24.56
2022-09-14T17:16:34.191Z,24.51
2022-09-14T17:19:43.636Z,24.35
2022-09-14T17:22:49.762Z,24.36
2022-09-14T17:25:56.582Z,24.19
2022-09-14T17:29:03.545Z,24.13
2022-09-14T17:32:13.975Z,24.10
2022-09-14T17:35:20.350Z,24.09
2022-09-14T17:38:28.868Z,24.00
2022-09-14T17:41:34.413Z,23.87
2022-09-14T17:44:41.462Z,23.91
2022-09-14T17:47:47.506Z,23.96
2022-09-14T17:50:55.433Z,23.80
2022-09-14T17:54:01.924Z,23.75
2022-09-14T17:57:07.256Z,23.78
2022-09-14T18:00:15.387Z,23.80
2022-09-14T18:03:20.987Z,23.82
2022-09-14T18:06:32.763Z,23.73
2022-09-14T18:09:38.629Z,23.86
2022-09-14T18:12:45.193Z,23.84
2022-09-14T18:15:56.585Z,23.67
2022-09-14T18:19:02.002Z,23.69
2022-09-14T18:22:09.079Z,23.64
2022-09-14T18:25:14.911Z,23.62
2022-09-14T18:28:22.291Z,23.65
2022-09-14T18:31:28.612Z,23.68
2022-09-14T18:34:35.184Z,23.71
2022-09-14T18:37:41.994Z,23.64
2022-09-14T18:40:47.653Z,23.58
2022-09-14T18:43:53.657Z,23.62
2022-09-14T18:46:59.689Z,23.71
2022-09-14T18:50:06.383Z,23.63
2022-09-14T18:53:11.761Z,23.60
2022-09-14T18:56:18.488Z,23.49
2022-09-14T18:59:24.050Z,23.55
2022-09-14T19:02:29.880Z,23.53
2022-09-14T19:05:40.909Z,23.54
2022-09-14T19:08:47.144Z,23.51
2022-09-14T19:11:52.628Z,23.40
2022-09-14T19:14:59.059Z,23.56
2022-09-14T19:18:05.265Z,23.57
2022-09-14T19:21:22.805Z,23.56
2022-09-14T19:24:33.561Z,23.43
2022-09-14T19:27:38.750Z,23.48
2022-09-14T19:30:44.208Z,23.39
2022-09-14T19:33:52.187Z,23.17
2022-09-14T19:36:57.671Z,23.22
2022-09-14T19:40:03.854Z,23.31
2022-09-14T19:43:09.736Z,23.27
2022-09-14T19:46:18.758Z,23.13
2022-09-14T19:49:26.587Z,23.07
2022-09-14T19:52:32.130Z,23.23
2022-09-14T19:55:38.216Z,23.19
2022-09-14T19:58:49.809Z,23.14
2022-09-14T20:01:55.713Z,23.19
2022-09-14T20:05:01.715Z,23.14
2022-09-14T20:08:08.445Z,23.15
2022-09-14T20:11:19.992Z,23.13
2022-09-14T20:14:26.970Z,23.06
2022-09-14T20:17:32.776Z,23.10
2022-09-14T20:20:38.605Z,23.03
2022-09-14T20:24:04.415Z,22.89
2022-09-14T20:27:11.936Z,22.63
2022-09-14T20:30:17.883Z,22.75
2022-09-14T20:33:23.870Z,22.73
2022-09-14T20:36:29.851Z,22.70
2022-09-14T20:39:38.611Z,22.78
2022-09-14T20:42:44.277Z,22.75
2022-09-14T20:45:49.904Z,22.80
2022-09-14T20:48:55.687Z,22.49
2022-09-14T20:52:03.325Z,22.58
2022-09-14T20:55:09.835Z,22.59
2022-09-14T20:58:15.052Z,22.50
2022-09-14T21:01:23.384Z,22.59
2022-09-14T21:04:29.036Z,22.64
2022-09-14T21:07:34.909Z,22.49
2022-09-14T21:10:40.709Z,22.36
2022-09-14T21:13:48.150Z,22.32
2022-09-14T21:16:57.039Z,22.28
2022-09-14T21:20:02.865Z,22.35
2022-09-14T21:23:08.865Z,22.28
2022-09-14T21:26:15.148Z,22.28
2022-09-14T21:29:24.209Z,22.01
2022-09-14T21:32:30.695Z,22.26
2022-09-14T21:35:36.641Z,22.35
2022-09-14T21:38:43.802Z,22.41
2022-09-14T21:41:57.253Z,22.32
2022-09-14T21:45:04.619Z,22.28
2022-09-14T21:48:10.352Z,22.37
2022-09-14T21:51:19.258Z,22.15
2022-09-14T21:54:24.968Z,22.27
2022-09-14T21:57:30.757Z,22.22
2022-09-14T22:00:39.409Z,22.18
2022-09-14T22:03:45.524Z,21.95
2022-09-14T22:06:52.182Z,21.99
2022-09-14T22:09:57.984Z,21.92
2022-09-14T22:13:03.530Z,22.00
2022-09-14T22:16:11.804Z,22.01
2022-09-14T22:19:23.600Z,21.96
2022-09-14T22:22:29.044Z,22.08
2022-09-14T22:25:39.039Z,21.98
2022-09-14T22:28:45.061Z,21.92
2022-09-14T22:31:51.029Z,21.98
2022-09-14T22:34:56.409Z,22.04
2022-09-14T22:38:02.644Z,21.95
2022-09-14T22:41:18.128Z,21.99
2022-09-14T22:44:23.634Z,21.71
2022-09-14T22:47:29.328Z,21.85
2022-09-14T22:50:35.179Z,21.81
2022-09-14T22:53:40.853Z,21.87
2022-09-14T22:56:46.922Z,21.87
2022-09-14T22:59:52.434Z,21.91
2022-09-14T23:02:58.035Z,21.81
2022-09-14T23:06:04.689Z,21.78
2022-09-14T23:09:12.995Z,21.82
2022-09-14T23:12:18.881Z,21.77
2022-09-14T23:15:24.948Z,21.68
2022-09-14T23:18:30.667Z,21.65
2022-09-14T23:21:36.499Z,21.75
2022-09-14T23:24:42.155Z,21.78
2022-09-14T23:27:47.997Z,21.69
2022-09-14T23:30:54.442Z,21.73
2022-09-14T23:34:02.894Z,21.56
2022-09-14T23:37:08.620Z,21.61
2022-09-14T23:40:14.346Z,21.67
2022-09-14T23:43:20.064Z,21.73
2022-09-14T23:46:25.962Z,21.66
2022-09-14T23:49:31.981Z,21.59
2022-09-14T23:52:37.499Z,21.33
2022-09-14T23:55:43.248Z,21.46
2022-09-14T23:58:49.151Z,21.44
